Baker City, OR

5:13 AM PDT on September 19, 2014 (GMT -0700)
Baker City Municipal | Change Station
CLOSE
Current Station
Airport
Location: Baker,
Elevation: 3373 ft
Nearby Weather Stations

Elev 3373 ft 44.84 °N, 117.81 °W | Updated 20 minutes ago

Overcast
Overcast
51 °F
Feels Like 51 °F
N
5
Wind Variable Wind from SSW

Today
High -- | Low -- °F
--% Chance of Precip.
Yesterday
High -- | Low -- °F
Precip. -- in
6:34 AM 6:54 PM
Waning Crescent, 19% visible
Pressure 30.01 in
Visibility 10.0 miles
Clouds Overcast 3500 ft
Dew Point 47 °F
Humidity 86%
Rainfall 0.00 in
Snow Depth 0 in , 0 in , 0 in
UV 0 out of 12
Pollen 5.40 out of 12
Air Quality Not available.
Flu Activity Not available.
METAR KBKE 191153Z AUTO 20004KT 10SM OVC035 11/08 A3006 RMK AO2 SLP162 T01060083 10150 20078 51012 TSNO $

More Conditions Fewer Conditions

Pressure 30.01 in
Visibility 10.0 miles
Clouds Overcast 3500 ft
Dew Point 47 °F
Humidity 86%
Rainfall 0.00 in
Snow Depth 0 in , 0 in , 0 in
UV 0 out of 12
Pollen 5.40 out of 12
Air Quality Not available.
Flu Activity Not available.
METAR KBKE 191153Z AUTO 20004KT 10SM OVC035 11/08 A3006 RMK AO2 SLP162 T01060083 10150 20078 51012 TSNO $

More Conditions Fewer Conditions

10-Day Weather Forecast

Almanac

Astronomy

Sep. 19, 2014 Rise Set
Actual Time 6:34 AM PDT 6:54 PM PDT
Civil Twilight 6:05 AM PDT 7:23 PM PDT
Nautical Twilight 5:31 AM PDT 7:57 PM PDT
Astronomical Twilight 4:55 AM PDT 8:33 PM PDT
Moon 2:15 AM PDT 4:33 PM PDT
Length of Visible Light 13h 17m
Length of Day
12h 19m
Tomorrow will be 3m 5s shorter.
Waning Crescent, 19% of the Moon is Illuminated
Today
Waning Crescent
Sep 24
New
Oct 1
First Quarter
Oct 8
Full
Oct 15
Last Quarter

Today's Extremes

State Highs State Lows

Community

WunderPhotos

Upload Photos

1,754,597 photos uploaded!

Nearby

Snow Depth

Station Depth Elevation
Derr 0 in 5670 ft
Bigelow Camp 0 in 5120 ft
Blue Mountain Spring 0 in 5900 ft
Daly Lake 0 in 3600 ft
Mud Ridge 0 in 3800 ft

Earthquake Activity

City Distance Mag. Time & Date
No recent earthquake activity has been reported nearby.
Minimum magnitude displayed is 2.5.

Coastal Water Temperatures

Place Temperature
No Stations Reporting

Nearby Weather Stations